• Join FlightAware (Why Join?)
  • Login
  • US Flag 
12:49AM EDT


 

Airport Tracker/Info


-or-


 

Live Flight TrackerFlight Track Log ✈ TRS412 ✈ 09-May-2013 ✈ KMDW - KATL

Flight Track Log - Related Links

Times and Time Zones

All times are in EDT time to prevent confusion due to time zone crossing. See the TRS412 flight status page for this flight to view local times or setup timezone preferences in your user account.

Time Position Orientation Groundspeed Altitude Reporting Facility
EDT Latitude Longitude Course Direction KTS MPH feet Rate Location/Type
06:28AM 41.8000 -87.8000 200° South 167 192 2,500  Level Chicago TRACON
06:29AM 41.7667 -87.8167 200° South 198 228 3,900 1,920 Climbing Chicago TRACON
06:31AM 41.6522 -87.8364 187° South 256 295 7,500 2,340 Climbing Chicago Center
06:32AM 41.5736 -87.8494 187° South 279 321 10,300 2,160 Climbing Chicago Center
06:33AM 41.4917 -87.8650 188° South 292 336 11,900 1,200 Climbing Chicago Center
06:34AM 41.4022 -87.8781 186° South 316 364 12,800 1,560 Climbing Chicago Center
06:35AM 41.2994 -87.8869 184° South 359 413 15,100 2,160 Climbing Chicago Center
06:36AM 41.1925 -87.8917 182° South 380 437 17,200 2,220 Climbing Chicago Center
06:37AM 41.0833 -87.8883 179° South 391 450 19,600 2,280 Climbing Chicago Center
06:38AM 40.9681 -87.8828 178° South 411 473 21,900 2,280 Climbing Chicago Center
06:39AM 40.8256 -87.8789 179° South 425 489 24,200 2,040 Climbing Chicago Center
06:40AM 40.7025 -87.8747 179° South 441 507 26,100 1,680 Climbing Chicago Center
06:41AM 40.5778 -87.8703 178° South 449 517 27,700 1,680 Climbing Chicago Center
06:42AM 40.4489 -87.8672 179° South 462 532 29,600 2,160 Climbing Chicago Center
06:43AM 40.3408 -87.8658 179° South 456 525 31,700 2,040 Climbing Indianapolis Center
06:44AM 40.2197 -87.8611 178° South 445 512 33,400 1,140 Climbing Indianapolis Center
06:45AM 40.0961 -87.8547 178° South 445 512 34,000 780 Climbing Indianapolis Center
06:46AM 39.9678 -87.8481 178° South 459 528 35,000 840 Climbing Indianapolis Center
06:47AM 39.8375 -87.8428 178° South 467 537 35,800 780 Climbing Indianapolis Center
06:48AM 39.7061 -87.8367 178° South 472 543 36,600 540 Climbing Indianapolis Center
06:49AM 39.5742 -87.8317 178° South 477 549 37,000 180 Climbing Indianapolis Center
06:50AM 39.4411 -87.8256 178° South 479 551 37,000  Level Indianapolis Center
06:51AM 39.3083 -87.8197 178° South 479 551 37,000  Level Indianapolis Center
06:52AM 39.1736 -87.8150 178° South 482 555 37,000  Level Indianapolis Center
06:53AM 39.0383 -87.8067 177° South 485 558 37,000  Level Indianapolis Center
06:54AM 38.8825 -87.7453 163° South 485 558 37,000  Level Indianapolis Center
06:55AM 38.7528 -87.6931 163° South 488 562 37,000  Level Indianapolis Center
06:56AM 38.6247 -87.6425 163° South 482 555 37,000  Level Indianapolis Center
06:57AM 38.5003 -87.5928 163° South 470 541 37,000  Level Indianapolis Center
06:58AM 38.3792 -87.5444 163° South 461 531 37,000  Level Indianapolis Center
06:59AM 38.2589 -87.4983 163° South 454 522 37,000  Level Indianapolis Center
07:00AM 38.1397 -87.4500 162° South 453 521 37,000  Level Indianapolis Center
07:01AM 38.0186 -87.4036 163° South 456 525 37,000  Level Indianapolis Center
07:02AM 37.8947 -87.3533 162° South 468 539 37,000  Level Indianapolis Center
07:03AM 37.7672 -87.3044 163° South 473 544 37,000  Level Indianapolis Center
07:04AM 37.6394 -87.2553 163° South 477 549 37,000  Level Indianapolis Center
07:05AM 37.5506 -87.2208 163° South 474 545 37,000  Level Memphis Center
07:06AM 37.4244 -87.1736 163° South 474 545 37,000  Level Memphis Center
07:07AM 37.2981 -87.1239 163° South 479 551 37,000  Level Memphis Center
07:08AM 37.1697 -87.0744 163° South 484 557 37,000  Level Memphis Center
07:09AM 37.0433 -87.0278 164° South 479 551 37,000  Level Memphis Center
07:10AM 36.9044 -86.9739 163° South 484 557 37,000  Level Memphis Center
07:11AM 36.7761 -86.9247 163° South 484 557 37,000  Level Memphis Center
07:12AM 36.6533 -86.8603 157° South 484 557 37,000  Level Memphis Center
07:13AM 36.5325 -86.7906 155° Southeast 479 551 37,000 -60 Level Memphis Center
07:14AM 36.4117 -86.7186 154° Southeast 479 551 36,900 -480 Descending Memphis Center
07:15AM 36.2953 -86.6594 158° South 492 566 36,100 -780 Descending Memphis Center
07:16AM 36.1725 -86.5956 157° South 487 560 35,400 -720 Descending Memphis Center
07:17AM 36.0494 -86.5292 156° South 478 550 34,700 -780 Descending Memphis Center
07:18AM 35.9264 -86.4658 157° South 483 556 33,900 -780 Descending Memphis Center
07:19AM 35.7908 -86.3928 156° South 483 556 33,200 -300 Descending Memphis Center
07:21AM 35.5508 -86.2136 149° Southeast 482 555 33,000 -120 Descending Atlanta Center
07:22AM 35.4400 -86.1214 146° Southeast 477 549 33,000  Level Atlanta Center
07:23AM 35.3267 -86.0319 147° Southeast 477 549 33,000 -300 Level Atlanta Center
07:24AM 35.2028 -85.9400 149° Southeast 482 555 32,500 -660 Descending Atlanta Center
07:25AM 35.0936 -85.8486 146° Southeast 477 549 31,700 -840 Descending Atlanta Center
07:26AM 34.9822 -85.7600 147° Southeast 477 549 30,900 -1,200 Descending Atlanta Center
07:27AM 34.8728 -85.6742 147° Southeast 477 549 29,400 -1,620 Descending Atlanta Center
07:28AM 34.7656 -85.5886 147° Southeast 477 549 27,700 -2,400 Descending Atlanta Center
07:29AM 34.6600 -85.5061 147° Southeast 477 549 24,600 -1,860 Descending Atlanta Center
07:30AM 34.5669 -85.4364 148° Southeast 466 536 24,000 -660 Descending Atlanta Center
07:31AM 34.4594 -85.3514 147° Southeast 455 524 23,300 -900 Descending Atlanta Center
07:32AM 34.3517 -85.2642 146° Southeast 455 524 22,200 -2,100 Descending Atlanta Center
07:33AM 34.2461 -85.1847 148° Southeast 446 513 19,200 -3,000 Descending Atlanta Center
07:34AM 34.1486 -85.1031 145° Southeast 439 505 16,200 -2,640 Descending Atlanta Center
07:35AM 34.0597 -84.9892 133° Southeast 430 495 14,000 -1,680 Descending Atlanta Center
07:36AM 33.9833 -84.8906 133° Southeast 409 471 12,900 -1,020 Descending Atlanta Center
07:37AM 33.9067 -84.7922 133° Southeast 403 464 12,000 -540 Descending Atlanta Center
07:37AM 33.8667 -84.7333 129° Southeast 403 464 12,100  Climbing Atlanta TRACON
07:38AM 33.7833 -84.6333 135° Southeast 373 429 12,000 -240 Descending Atlanta TRACON
07:39AM 33.7333 -84.5500 126° Southeast 291 335 11,700 -720 Descending Atlanta TRACON
07:40AM 33.7333 -84.4667 90° East 260 299 10,600 -1,320 Descending Atlanta TRACON
07:42AM 33.7333 -84.3833 90° East 259 298 9,000 -1,500 Descending Atlanta TRACON
07:42AM 33.7333 -84.3000 90° East 248 285 7,600 -1,560 Descending Atlanta TRACON
07:43AM 33.7333 -84.2167 90° East 244 281 6,100 -1,620 Descending Atlanta TRACON
07:44AM 33.6833 -84.2000 164° South 240 276 4,400 -1,260 Descending Atlanta TRACON
07:45AM 33.6500 -84.2500 231° Southwest 190 219 3,600 -900 Descending Atlanta TRACON
07:46AM 33.6500 -84.3167 270° West 181 208 2,600 -900 Descending Atlanta TRACON
07:47AM 33.6500 -84.3667 270° West 127 146 1,800 -840 Descending Atlanta TRACON
07:49AM 33.6367 -84.4279 126° Southeast  Level Estimated
07:56AM 33.6367 -84.4279 North  Level Estimated
07:57AM 33.6367 -84.4279 North  Level Estimated